Time;durP1;ratioP1;P1;durP2;ratioP2;P2;SDS_P1;SDS_P2;PMS_P1;PMS_P2;Temp;Humidity;BMP_temperature;BMP_pressure;BME280_temperature;BME280_humidity;BME280_pressure;Samples;Min_cycle;Max_cycle;Signal;HPM_P1;HPM_P2
2021/09/17 00:01:16;;;;;;;1.27;0.90;;;15.50;99.90;;;;;;5076764;28;20193;-84
2021/09/17 00:03:43;;;;;;;1.20;0.85;;;15.40;99.90;;;;;;5076442;28;20264;-83
2021/09/17 00:06:09;;;;;;;0.85;0.80;;;15.50;99.90;;;;;;5075314;28;20257;-83
2021/09/17 00:08:34;;;;;;;1.55;1.02;;;15.40;99.90;;;;;;5075431;28;20332;-83
2021/09/17 00:11:00;;;;;;;1.17;1.02;;;15.40;99.90;;;;;;5091740;28;20205;-83
2021/09/17 00:13:26;;;;;;;0.70;0.70;;;15.50;99.90;;;;;;5074091;28;20278;-82
2021/09/17 00:15:52;;;;;;;1.30;1.08;;;15.40;99.90;;;;;;5075779;28;20180;-83
2021/09/17 00:18:17;;;;;;;2.55;0.90;;;15.40;99.90;;;;;;5073640;28;20195;-84
2021/09/17 00:20:43;;;;;;;2.72;1.13;;;15.40;99.90;;;;;;5075006;28;20185;-82
2021/09/17 00:23:08;;;;;;;1.67;1.10;;;15.40;99.90;;;;;;5075560;28;20208;-82
2021/09/17 00:25:34;;;;;;;1.50;0.88;;;15.40;99.90;;;;;;5078547;28;20230;-83
2021/09/17 00:28:00;;;;;;;2.50;1.02;;;15.30;99.90;;;;;;5075814;28;20234;-83
2021/09/17 00:30:28;;;;;;;1.58;0.90;;;15.30;99.90;;;;;;5076167;28;20193;-83
2021/09/17 00:32:55;;;;;;;2.72;1.35;;;15.30;99.90;;;;;;5076180;28;20197;-83
2021/09/17 00:35:21;;;;;;;1.67;1.10;;;15.30;99.90;;;;;;5075450;28;20613;-83
2021/09/17 00:37:46;;;;;;;2.28;1.00;;;15.30;99.90;;;;;;5075223;28;20185;-84
2021/09/17 00:40:12;;;;;;;1.33;0.93;;;15.30;99.90;;;;;;5073749;28;20838;-83
2021/09/17 00:42:39;;;;;;;2.70;1.50;;;15.30;99.90;;;;;;5075465;28;20741;-83
2021/09/17 00:45:06;;;;;;;1.75;1.00;;;15.20;99.90;;;;;;5073441;28;20185;-82
2021/09/17 00:47:33;;;;;;;1.48;1.00;;;15.30;99.90;;;;;;5076691;28;20170;-83
2021/09/17 00:49:58;;;;;;;1.40;1.00;;;15.20;99.90;;;;;;5090396;28;20268;-83
2021/09/17 00:52:24;;;;;;;1.10;1.00;;;15.20;99.90;;;;;;5075008;28;20288;-82
2021/09/17 00:54:49;;;;;;;5.82;1.30;;;15.10;99.90;;;;;;5074466;28;20188;-83
2021/09/17 00:57:15;;;;;;;2.58;1.33;;;15.10;99.90;;;;;;5074423;28;20186;-82
2021/09/17 00:59:41;;;;;;;2.78;1.08;;;15.10;99.90;;;;;;5074758;28;20186;-81
2021/09/17 01:02:06;;;;;;;2.13;1.15;;;15.10;99.90;;;;;;5074800;28;20200;-82
2021/09/17 01:04:32;;;;;;;1.90;1.63;;;15.10;99.90;;;;;;5074757;28;20205;-82
2021/09/17 01:06:58;;;;;;;1.58;1.20;;;15.20;99.90;;;;;;5073596;28;20213;-83
2021/09/17 01:09:25;;;;;;;1.33;1.23;;;15.20;99.90;;;;;;5074632;28;20176;-83
2021/09/17 01:11:51;;;;;;;1.70;1.30;;;15.10;99.90;;;;;;5074840;28;20192;-83
2021/09/17 01:14:18;;;;;;;1.20;1.00;;;15.10;99.90;;;;;;5081564;28;20204;-83
2021/09/17 01:16:44;;;;;;;2.70;1.30;;;15.10;99.90;;;;;;5080557;28;20209;-84
2021/09/17 01:19:09;;;;;;;2.53;1.38;;;15.10;99.90;;;;;;5079584;28;20201;-83
2021/09/17 01:21:35;;;;;;;1.45;1.23;;;15.10;99.90;;;;;;5079037;28;20195;-83
2021/09/17 01:24:01;;;;;;;1.80;1.40;;;15.00;99.90;;;;;;5076954;28;20217;-84
2021/09/17 01:26:26;;;;;;;1.98;1.30;;;15.00;99.90;;;;;;5079472;28;20577;-83
2021/09/17 01:28:52;;;;;;;1.98;1.30;;;15.10;99.90;;;;;;5081892;28;20181;-83
2021/09/17 01:31:17;;;;;;;1.67;1.45;;;15.10;99.90;;;;;;5081029;28;20185;-83
2021/09/17 01:33:43;;;;;;;3.35;1.60;;;15.10;99.90;;;;;;5081954;28;20198;-83
2021/09/17 01:36:10;;;;;;;1.60;1.40;;;15.00;99.90;;;;;;5080746;28;20195;-83
2021/09/17 01:38:38;;;;;;;2.42;1.48;;;15.00;99.90;;;;;;5080160;28;20281;-83
2021/09/17 01:41:05;;;;;;;2.80;1.60;;;15.00;99.90;;;;;;5097561;28;20553;-83
2021/09/17 01:43:30;;;;;;;1.85;1.50;;;15.00;99.90;;;;;;5078021;28;20212;-83
2021/09/17 01:45:56;;;;;;;2.22;1.35;;;15.00;99.90;;;;;;5081462;28;20247;-83
2021/09/17 01:48:25;;;;;;;2.05;1.70;;;14.90;99.90;;;;;;5080427;28;20287;-84
2021/09/17 01:50:50;;;;;;;2.08;1.70;;;15.00;99.90;;;;;;5078710;28;20239;-83
2021/09/17 01:53:16;;;;;;;2.45;1.58;;;14.90;99.90;;;;;;5077306;28;20566;-84
2021/09/17 01:55:41;;;;;;;2.03;1.70;;;14.90;99.90;;;;;;5078961;28;20723;-83
2021/09/17 01:58:07;;;;;;;2.53;1.60;;;14.80;99.90;;;;;;5087593;28;20221;-83
2021/09/17 02:00:33;;;;;;;2.03;1.67;;;14.80;99.90;;;;;;5081482;28;20312;-83
2021/09/17 02:03:01;;;;;;;3.42;1.92;;;14.80;99.90;;;;;;5077869;28;20955;-83
2021/09/17 02:05:27;;;;;;;5.13;2.00;;;14.90;99.90;;;;;;5079983;28;20196;-83
2021/09/17 02:07:53;;;;;;;2.75;1.90;;;14.90;99.90;;;;;;5079237;28;20181;-83
2021/09/17 02:10:18;;;;;;;2.60;2.08;;;14.90;99.90;;;;;;5079533;28;20188;-83
2021/09/17 02:12:45;;;;;;;2.85;2.00;;;14.80;99.90;;;;;;5078676;28;21086;-84
2021/09/17 02:15:11;;;;;;;3.45;2.10;;;14.80;99.90;;;;;;5080563;28;20277;-83
2021/09/17 02:17:36;;;;;;;2.92;2.05;;;14.90;99.90;;;;;;5089560;28;20511;-83
2021/09/17 02:20:04;;;;;;;3.00;1.80;;;14.80;99.90;;;;;;5077836;28;20665;-83
2021/09/17 02:22:29;;;;;;;2.78;2.58;;;14.90;99.90;;;;;;5095496;28;20247;-83
2021/09/17 02:24:55;;;;;;;3.10;2.35;;;14.90;99.90;;;;;;5077696;28;20198;-83
2021/09/17 02:27:22;;;;;;;2.63;2.28;;;14.90;99.90;;;;;;5077098;28;20207;-84
2021/09/17 02:29:48;;;;;;;4.13;2.47;;;14.90;99.90;;;;;;5079626;28;20181;-83
2021/09/17 02:32:13;;;;;;;3.38;2.35;;;14.90;99.90;;;;;;5079534;28;20173;-82
2021/09/17 02:34:40;;;;;;;3.28;2.28;;;14.90;99.90;;;;;;5079868;28;20185;-83
2021/09/17 02:37:06;;;;;;;4.93;2.95;;;14.90;99.90;;;;;;5078714;28;20189;-83
2021/09/17 02:39:32;;;;;;;3.55;2.63;;;14.80;99.90;;;;;;5078060;28;20185;-83
2021/09/17 02:41:58;;;;;;;3.47;2.53;;;14.70;99.90;;;;;;5076856;28;20185;-83
2021/09/17 02:44:23;;;;;;;3.00;2.70;;;14.70;99.90;;;;;;5078982;28;20216;-82
2021/09/17 02:46:49;;;;;;;3.65;2.70;;;14.70;99.90;;;;;;5077809;28;20181;-82
2021/09/17 02:49:14;;;;;;;4.53;3.15;;;14.70;99.90;;;;;;5079459;28;20636;-83
2021/09/17 02:51:40;;;;;;;4.22;2.70;;;14.70;99.90;;;;;;5078305;28;20177;-84
2021/09/17 02:54:06;;;;;;;4.70;3.22;;;14.70;99.90;;;;;;5076329;28;20228;-83
2021/09/17 02:56:31;;;;;;;3.97;3.28;;;14.70;99.90;;;;;;5078919;28;20182;-84
2021/09/17 02:58:57;;;;;;;3.95;2.90;;;14.70;99.90;;;;;;5094726;28;20182;-82
2021/09/17 03:01:23;;;;;;;5.78;3.47;;;14.70;99.90;;;;;;5076560;28;20178;-82
2021/09/17 03:03:48;;;;;;;3.40;2.80;;;14.60;99.90;;;;;;5077594;28;20263;-83
2021/09/17 03:06:14;;;;;;;5.65;3.70;;;14.60;99.90;;;;;;5076877;28;20185;-82
2021/09/17 03:08:39;;;;;;;6.78;2.95;;;14.60;99.90;;;;;;5079967;28;20192;-83
2021/09/17 03:11:05;;;;;;;3.25;2.90;;;14.60;99.90;;;;;;5077182;28;21174;-82
2021/09/17 03:13:31;;;;;;;3.50;3.20;;;14.60;99.90;;;;;;5076754;28;20211;-82
2021/09/17 03:15:57;;;;;;;3.80;3.35;;;14.60;99.90;;;;;;5079288;28;20185;-83
2021/09/17 03:18:23;;;;;;;5.38;3.50;;;14.60;99.90;;;;;;5076992;28;20239;-81
2021/09/17 03:20:50;;;;;;;3.80;3.28;;;14.60;99.90;;;;;;5078518;28;20687;-82
2021/09/17 03:23:16;;;;;;;3.33;3.03;;;14.60;99.90;;;;;;5077460;28;20224;-82
2021/09/17 03:25:43;;;;;;;4.45;3.42;;;14.60;99.90;;;;;;5077672;28;20184;-83
2021/09/17 03:28:09;;;;;;;3.67;3.38;;;14.60;99.90;;;;;;5079206;28;20196;-81
2021/09/17 03:30:34;;;;;;;4.20;3.80;;;14.50;99.90;;;;;;5077087;28;20248;-82
2021/09/17 03:33:01;;;;;;;5.15;3.63;;;14.50;99.90;;;;;;5079385;28;20197;-82
2021/09/17 03:35:27;;;;;;;4.15;3.75;;;14.50;99.90;;;;;;5078032;28;20186;-82
2021/09/17 03:37:52;;;;;;;3.50;3.20;;;14.60;99.90;;;;;;5096325;28;20183;-82
2021/09/17 03:40:18;;;;;;;5.50;3.58;;;14.60;99.90;;;;;;5076930;28;20533;-81
2021/09/17 03:42:44;;;;;;;5.53;3.53;;;14.50;99.90;;;;;;5077154;28;20613;-82
2021/09/17 03:45:10;;;;;;;5.22;4.00;;;14.50;99.90;;;;;;5076905;28;20239;-82
2021/09/17 03:47:36;;;;;;;5.50;3.63;;;14.50;99.90;;;;;;5076068;28;20220;-82
2021/09/17 03:50:04;;;;;;;5.90;3.92;;;14.50;99.90;;;;;;5075261;28;20201;-82
2021/09/17 03:52:29;;;;;;;4.30;3.90;;;14.50;99.90;;;;;;5075270;28;20749;-82
2021/09/17 03:54:55;;;;;;;6.68;4.57;;;14.50;99.90;;;;;;5077104;28;20288;-82
2021/09/17 03:57:21;;;;;;;5.38;4.50;;;14.50;99.90;;;;;;5076472;28;20182;-82
2021/09/17 03:59:46;;;;;;;4.65;4.15;;;14.50;99.90;;;;;;5092866;28;20271;-82
2021/09/17 04:02:12;;;;;;;6.03;4.28;;;14.50;99.90;;;;;;5078441;28;20223;-83
2021/09/17 04:04:39;;;;;;;5.65;4.35;;;14.60;99.90;;;;;;5076579;28;21060;-82
2021/09/17 04:07:06;;;;;;;5.80;4.55;;;14.60;99.90;;;;;;5076143;28;20547;-83
2021/09/17 04:09:32;;;;;;;4.97;4.45;;;14.60;99.90;;;;;;5076012;28;20263;-82
2021/09/17 04:11:57;;;;;;;5.38;4.82;;;14.60;99.90;;;;;;5073978;28;20189;-82
2021/09/17 04:14:23;;;;;;;5.13;4.63;;;14.50;99.90;;;;;;5076816;28;20655;-83
2021/09/17 04:16:49;;;;;;;6.18;4.70;;;14.60;99.90;;;;;;5075822;28;20347;-83
2021/09/17 04:19:14;;;;;;;6.05;4.78;;;14.60;99.90;;;;;;5075952;28;20191;-82
2021/09/17 04:21:40;;;;;;;5.15;4.65;;;14.50;99.90;;;;;;5077736;28;20192;-82
2021/09/17 04:24:05;;;;;;;5.68;4.72;;;14.50;99.90;;;;;;5076508;28;20212;-82
2021/09/17 04:26:31;;;;;;;7.13;5.57;;;14.50;99.90;;;;;;5075227;28;20273;-82
2021/09/17 04:28:57;;;;;;;6.28;5.13;;;14.40;99.90;;;;;;5075710;28;20177;-81
2021/09/17 04:31:22;;;;;;;6.00;5.10;;;14.40;99.90;;;;;;5073141;28;20222;-82
2021/09/17 04:33:48;;;;;;;6.72;5.70;;;14.40;99.90;;;;;;5073760;28;20204;-82
2021/09/17 04:36:13;;;;;;;7.35;6.13;;;14.40;99.90;;;;;;5074382;28;20793;-82
2021/09/17 04:38:39;;;;;;;6.47;5.78;;;14.40;99.90;;;;;;5075063;28;20209;-82
2021/09/17 04:41:04;;;;;;;6.28;5.65;;;14.40;99.90;;;;;;5074421;28;20832;-82
2021/09/17 04:43:30;;;;;;;7.35;5.82;;;14.40;99.90;;;;;;5073868;28;20204;-82
2021/09/17 04:45:56;;;;;;;6.97;5.65;;;14.40;99.90;;;;;;5074702;28;20192;-82
2021/09/17 04:48:21;;;;;;;6.50;5.32;;;14.40;99.90;;;;;;5074646;28;20181;-82
2021/09/17 04:50:47;;;;;;;5.72;5.13;;;14.40;99.90;;;;;;5073533;28;20181;-82
2021/09/17 04:53:13;;;;;;;5.85;5.30;;;14.40;99.90;;;;;;5074506;28;20368;-81
2021/09/17 04:55:39;;;;;;;6.50;5.68;;;14.40;99.90;;;;;;5074928;28;20213;-82
2021/09/17 04:58:07;;;;;;;6.22;5.63;;;14.40;99.90;;;;;;5091057;28;20181;-82
2021/09/17 05:00:34;;;;;;;7.80;6.13;;;14.40;99.90;;;;;;5074031;28;20189;-82
2021/09/17 05:03:00;;;;;;;8.68;6.35;;;14.40;99.90;;;;;;5076236;28;20259;-82
2021/09/17 05:05:26;;;;;;;7.43;6.03;;;14.40;99.90;;;;;;5080856;28;20695;-82
2021/09/17 05:07:52;;;;;;;6.88;6.18;;;14.40;99.90;;;;;;5080773;28;20174;-82
2021/09/17 05:10:18;;;;;;;7.30;6.53;;;14.50;99.90;;;;;;5080449;28;20196;-82
2021/09/17 05:12:43;;;;;;;9.70;7.18;;;14.50;99.90;;;;;;5079424;28;20208;-82
2021/09/17 05:15:09;;;;;;;7.68;6.38;;;14.50;99.90;;;;;;5081067;28;20278;-82
2021/09/17 05:17:35;;;;;;;8.48;6.53;;;14.50;99.90;;;;;;5080654;28;20178;-82
2021/09/17 05:20:01;;;;;;;8.32;6.28;;;14.50;99.90;;;;;;5081218;28;20179;-82
2021/09/17 05:22:27;;;;;;;7.77;6.70;;;14.50;99.90;;;;;;5079861;28;20224;-82
2021/09/17 05:24:53;;;;;;;8.98;7.13;;;14.50;99.90;;;;;;5080238;28;20655;-82
2021/09/17 05:27:19;;;;;;;7.30;6.40;;;14.50;99.90;;;;;;5079689;28;20282;-82
2021/09/17 05:29:45;;;;;;;7.65;6.82;;;14.50;99.90;;;;;;5080858;28;20712;-82
2021/09/17 05:32:11;;;;;;;8.30;6.72;;;14.50;99.90;;;;;;5080704;28;20203;-82
2021/09/17 05:34:37;;;;;;;8.80;7.35;;;14.60;99.90;;;;;;5078930;28;20651;-82
2021/09/17 05:37:03;;;;;;;10.73;8.43;;;14.60;99.90;;;;;;5080862;28;20669;-82
2021/09/17 05:39:29;;;;;;;9.25;8.20;;;14.60;99.90;;;;;;5080137;28;20181;-82
2021/09/17 05:41:55;;;;;;;9.23;7.28;;;14.70;99.90;;;;;;5080216;28;20193;-82
2021/09/17 05:44:20;;;;;;;9.23;8.13;;;14.70;99.90;;;;;;5078869;28;20914;-82
2021/09/17 05:46:46;;;;;;;10.00;8.18;;;14.60;99.90;;;;;;5077732;28;20184;-82
2021/09/17 05:49:12;;;;;;;9.70;7.50;;;14.80;99.90;;;;;;5087475;28;20217;-82
2021/09/17 05:51:40;;;;;;;8.57;7.53;;;14.70;99.90;;;;;;5086333;28;20182;-79
2021/09/17 05:54:07;;;;;;;10.63;7.95;;;14.80;99.90;;;;;;5090507;28;20220;-81
2021/09/17 05:56:33;;;;;;;9.88;7.60;;;14.80;99.90;;;;;;5087932;28;20188;-80
2021/09/17 05:58:58;;;;;;;8.30;7.28;;;14.80;99.90;;;;;;5089826;28;20205;-80
2021/09/17 06:01:24;;;;;;;7.60;6.80;;;14.80;99.90;;;;;;5087452;28;20239;-81
2021/09/17 06:03:50;;;;;;;7.60;6.43;;;14.90;99.90;;;;;;5100639;28;20224;-80
2021/09/17 06:06:46;;;;;;;7.30;6.57;;;14.90;99.90;;;;;;5077447;28;20279;-83
2021/09/17 06:09:46;;;;;;;8.60;6.10;;;15.00;99.90;;;;;;5089523;28;20221;-82
2021/09/17 06:12:19;;;;;;;6.03;5.22;;;15.10;99.90;;;;;;5087579;28;20269;-82
2021/09/17 06:15:06;;;;;;;4.80;4.28;;;15.00;99.90;;;;;;5079561;28;20178;-82
2021/09/17 06:17:36;;;;;;;6.55;4.63;;;15.10;99.90;;;;;;5079905;28;20174;-82
2021/09/17 06:24:08;;;;;;;5.47;3.88;;;15.20;99.90;;;;;;5081245;28;20537;-82
2021/09/17 06:26:56;;;;;;;4.03;3.47;;;15.30;99.90;;;;;;5019614;28;20190;-82
2021/09/17 06:29:50;;;;;;;4.18;3.17;;;15.30;99.90;;;;;;5078552;28;20202;-82
2021/09/17 06:35:55;;;;;;;4.75;3.67;;;15.50;99.90;;;;;;5046677;28;20186;-83
2021/09/17 06:44:29;;;;;;;5.32;3.05;;;15.60;99.90;;;;;;5064256;22;20312;-74
2021/09/17 06:46:56;;;;;;;4.43;3.33;;;15.70;99.90;;;;;;5037124;28;20297;-77
2021/09/17 06:49:22;;;;;;;5.50;3.42;;;15.70;99.90;;;;;;5057299;28;20181;-75
2021/09/17 06:51:47;;;;;;;4.47;3.35;;;15.80;99.90;;;;;;5038860;28;20199;-76
2021/09/17 06:54:13;;;;;;;5.43;3.50;;;15.80;99.90;;;;;;5033956;28;20232;-75
2021/09/17 06:56:38;;;;;;;4.63;3.38;;;15.90;99.90;;;;;;5025949;28;20194;-74
2021/09/17 06:59:04;;;;;;;4.13;3.55;;;16.00;99.90;;;;;;5036035;28;20254;-79
2021/09/17 07:01:30;;;;;;;4.93;3.08;;;16.00;99.90;;;;;;5025606;28;20199;-74
2021/09/17 07:03:55;;;;;;;3.83;3.28;;;15.90;99.90;;;;;;5037776;28;20194;-77
2021/09/17 07:06:21;;;;;;;4.68;3.55;;;15.90;99.90;;;;;;5037211;28;20202;-75
2021/09/17 07:08:47;;;;;;;4.30;3.00;;;16.00;99.90;;;;;;5035867;28;20554;-76
2021/09/17 07:11:12;;;;;;;3.20;2.67;;;16.10;99.90;;;;;;5036056;28;20228;-76
2021/09/17 07:13:38;;;;;;;3.95;2.63;;;16.10;99.90;;;;;;5031172;28;20228;-75
2021/09/17 07:16:04;;;;;;;2.60;2.40;;;16.10;99.90;;;;;;5031739;28;21220;-74
2021/09/17 07:18:30;;;;;;;3.15;2.58;;;16.20;99.90;;;;;;5029717;28;20183;-74
2021/09/17 07:20:57;;;;;;;3.63;2.65;;;16.40;99.90;;;;;;5031501;28;20760;-74
2021/09/17 07:23:25;;;;;;;2.92;2.40;;;16.50;99.90;;;;;;5031428;28;20220;-74
2021/09/17 07:25:51;;;;;;;2.47;2.25;;;16.60;99.90;;;;;;5016579;28;20183;-74
2021/09/17 07:28:17;;;;;;;3.33;2.47;;;16.60;99.90;;;;;;5012216;28;20196;-76
2021/09/17 07:30:42;;;;;;;3.30;2.40;;;16.60;99.90;;;;;;5026424;28;20202;-75
2021/09/17 07:33:08;;;;;;;3.53;2.30;;;16.60;99.90;;;;;;5035401;28;20169;-79
2021/09/17 07:35:34;;;;;;;3.67;2.30;;;16.70;99.90;;;;;;5033454;28;20185;-76
2021/09/17 07:38:00;;;;;;;3.97;2.10;;;16.80;99.90;;;;;;5032583;28;20173;-77
2021/09/17 07:40:30;;;;;;;2.28;2.03;;;16.80;99.90;;;;;;5016020;28;20203;-78
2021/09/17 07:42:56;;;;;;;2.35;1.50;;;16.70;99.90;;;;;;5032638;28;20230;-75
2021/09/17 07:45:24;;;;;;;2.25;1.83;;;16.80;99.90;;;;;;5035795;28;20241;-78
2021/09/17 07:47:50;;;;;;;3.50;2.20;;;16.80;99.90;;;;;;5035666;28;20177;-77
2021/09/17 07:50:16;;;;;;;3.72;2.00;;;16.80;99.90;;;;;;5033973;28;20194;-74
2021/09/17 07:52:43;;;;;;;2.75;1.67;;;16.70;99.90;;;;;;5033160;28;20190;-76
2021/09/17 07:55:09;;;;;;;1.88;1.60;;;16.70;99.90;;;;;;5026382;28;20182;-77
2021/09/17 07:57:36;;;;;;;2.55;1.90;;;16.70;99.90;;;;;;5036807;28;20178;-78
2021/09/17 08:00:03;;;;;;;2.00;1.80;;;16.70;99.90;;;;;;5024568;28;20271;-78
2021/09/17 08:02:29;;;;;;;1.73;1.63;;;16.80;99.90;;;;;;5034177;28;20196;-77
2021/09/17 08:04:54;;;;;;;1.67;1.58;;;16.70;99.90;;;;;;5035410;28;21139;-80
2021/09/17 08:07:20;;;;;;;1.83;1.65;;;16.80;99.90;;;;;;5036248;28;20676;-74
2021/09/17 08:09:46;;;;;;;1.65;1.52;;;16.80;99.90;;;;;;5024986;28;20191;-75
2021/09/17 08:12:12;;;;;;;2.03;1.65;;;16.90;99.90;;;;;;5034694;28;20197;-74
2021/09/17 08:14:37;;;;;;;3.25;1.38;;;16.90;99.90;;;;;;5035893;28;20232;-75
2021/09/17 08:17:03;;;;;;;2.65;1.38;;;17.10;99.90;;;;;;5032809;28;20185;-74
2021/09/17 08:19:29;;;;;;;2.40;1.65;;;17.30;99.90;;;;;;5034455;28;20175;-78
2021/09/17 08:21:55;;;;;;;1.23;1.10;;;17.50;99.90;;;;;;5021747;28;20205;-76
2021/09/17 08:24:20;;;;;;;1.48;1.23;;;17.40;99.90;;;;;;5034430;28;20205;-73
2021/09/17 08:26:48;;;;;;;3.60;1.20;;;17.50;99.90;;;;;;5035193;28;20237;-74
2021/09/17 08:29:15;;;;;;;1.52;1.20;;;17.60;99.90;;;;;;5034304;28;20644;-76
2021/09/17 08:31:41;;;;;;;1.83;1.08;;;17.50;99.90;;;;;;5032266;28;20276;-79
2021/09/17 08:34:08;;;;;;;2.05;1.00;;;17.30;99.90;;;;;;5040670;28;20786;-76
2021/09/17 08:36:35;;;;;;;2.20;1.00;;;17.30;99.90;;;;;;5035780;28;20186;-76
2021/09/17 08:39:01;;;;;;;1.70;1.42;;;17.30;99.90;;;;;;5034841;28;20266;-78
2021/09/17 08:41:26;;;;;;;3.20;1.00;;;17.60;99.90;;;;;;5033357;28;20261;-77
2021/09/17 08:43:53;;;;;;;1.60;0.98;;;17.70;99.90;;;;;;5034067;28;20214;-76
2021/09/17 08:46:20;;;;;;;1.50;1.00;;;17.90;99.90;;;;;;5033814;28;20182;-78
2021/09/17 08:48:49;;;;;;;0.90;0.80;;;18.00;99.90;;;;;;5035321;28;20376;-78
2021/09/17 08:51:16;;;;;;;1.38;1.17;;;18.20;99.90;;;;;;5032554;28;20198;-78
2021/09/17 08:53:42;;;;;;;1.77;0.80;;;18.40;99.90;;;;;;5034410;28;20707;-77
2021/09/17 08:56:10;;;;;;;2.28;0.77;;;18.60;99.90;;;;;;5024787;28;20582;-74
2021/09/17 08:58:36;;;;;;;1.48;0.70;;;18.70;99.90;;;;;;5035628;28;20265;-78
2021/09/17 09:01:02;;;;;;;1.10;0.68;;;19.00;99.90;;;;;;5033861;28;20281;-79
2021/09/17 09:03:31;;;;;;;1.83;0.88;;;19.00;99.90;;;;;;5032033;28;20190;-76
2021/09/17 09:06:10;;;;;;;3.53;1.23;;;18.70;99.90;;;;;;5035989;28;20501;-76
2021/09/17 09:08:39;;;;;;;2.75;1.15;;;18.40;99.90;;;;;;5035287;28;20171;-77
2021/09/17 09:11:22;;;;;;;1.23;1.02;;;18.10;99.90;;;;;;5035377;28;20241;-75
2021/09/17 09:14:01;;;;;;;1.42;1.00;;;18.10;99.90;;;;;;5035142;28;20273;-75
2021/09/17 09:16:28;;;;;;;1.88;0.75;;;18.40;99.90;;;;;;5034566;28;20285;-76
2021/09/17 09:18:54;;;;;;;2.15;0.70;;;18.70;99.90;;;;;;5034055;28;20191;-74
2021/09/17 09:21:28;;;;;;;1.30;0.70;;;18.70;99.90;;;;;;5034726;28;20218;-76
2021/09/17 09:24:16;;;;;;;0.80;0.52;;;18.90;99.90;;;;;;5035038;28;20217;-77
2021/09/17 09:26:44;;;;;;;0.50;0.40;;;19.10;99.90;;;;;;5033126;28;20179;-77
2021/09/17 09:29:29;;;;;;;1.48;0.52;;;19.10;99.90;;;;;;5034895;28;20648;-76
2021/09/17 09:31:55;;;;;;;0.73;0.57;;;19.10;99.90;;;;;;5033535;28;20572;-75
2021/09/17 09:34:24;;;;;;;0.40;0.30;;;18.80;99.90;;;;;;5033156;28;20179;-69
2021/09/17 09:37:04;;;;;;;0.73;0.40;;;18.80;99.90;;;;;;5031862;28;20541;-68
2021/09/17 09:39:49;;;;;;;1.15;0.40;;;18.90;99.90;;;;;;5030461;28;20186;-70
2021/09/17 09:42:18;;;;;;;1.05;0.40;;;19.30;99.90;;;;;;5028926;28;20217;-70
2021/09/17 09:45:05;;;;;;;0.60;0.40;;;19.40;99.90;;;;;;5034992;28;20283;-68
2021/09/17 09:47:36;;;;;;;0.50;0.50;;;19.20;99.90;;;;;;5024006;28;20277;-67
2021/09/17 09:50:09;;;;;;;0.77;0.55;;;18.90;99.90;;;;;;5021902;28;20182;-67
2021/09/17 09:52:36;;;;;;;0.43;0.40;;;18.80;99.90;;;;;;5029274;28;20401;-65
2021/09/17 09:55:06;;;;;;;0.85;0.40;;;18.70;99.90;;;;;;5029299;28;20182;-69
2021/09/17 09:57:32;;;;;;;1.38;0.65;;;18.50;99.90;;;;;;5031364;28;20167;-68
2021/09/17 10:00:06;;;;;;;0.32;0.30;;;18.60;99.90;;;;;;5026539;28;20191;-67
2021/09/17 10:02:33;;;;;;;0.60;0.43;;;18.60;99.90;;;;;;5026404;28;20183;-65
2021/09/17 10:04:59;;;;;;;1.73;0.50;;;18.70;99.90;;;;;;5027365;28;20203;-68
2021/09/17 10:07:27;;;;;;;0.68;0.30;;;18.70;99.90;;;;;;5026421;28;20186;-70
2021/09/17 10:09:53;;;;;;;1.35;0.40;;;18.60;99.90;;;;;;5029088;28;20197;-67
2021/09/17 10:12:19;;;;;;;0.57;0.40;;;18.60;99.90;;;;;;5030376;28;20210;-65
2021/09/17 10:14:48;;;;;;;0.82;0.73;;;18.50;99.90;;;;;;5030587;28;20446;-68
2021/09/17 10:17:20;;;;;;;0.65;0.40;;;18.40;99.90;;;;;;5031564;28;20174;-66
2021/09/17 10:19:50;;;;;;;1.10;0.57;;;18.40;99.90;;;;;;5033400;28;20716;-68
2021/09/17 10:22:26;;;;;;;0.40;0.40;;;18.20;99.90;;;;;;5036745;28;20717;-66
2021/09/17 10:25:05;;;;;;;0.70;0.50;;;18.20;99.90;;;;;;5031787;28;20201;-66
2021/09/17 10:27:31;;;;;;;1.30;0.40;;;18.30;99.90;;;;;;5035758;28;20209;-68
2021/09/17 10:30:00;;;;;;;1.05;0.60;;;18.50;99.90;;;;;;5033064;28;20202;-68
2021/09/17 10:32:26;;;;;;;1.88;0.60;;;18.70;99.90;;;;;;5030096;28;20253;-68
2021/09/17 10:35:10;;;;;;;0.90;0.38;;;18.80;99.90;;;;;;5036948;28;20170;-68
2021/09/17 10:38:01;;;;;;;1.05;0.40;;;19.10;99.90;;;;;;5038226;28;20175;-69
2021/09/17 10:40:41;;;;;;;1.73;0.40;;;19.60;99.90;;;;;;5029184;28;20554;-66
2021/09/17 10:43:10;;;;;;;0.57;0.50;;;19.70;99.90;;;;;;5036359;28;20240;-65
2021/09/17 10:45:42;;;;;;;1.50;0.60;;;19.70;99.90;;;;;;5032410;28;20174;-70
2021/09/17 10:48:09;;;;;;;1.80;0.50;;;19.40;99.90;;;;;;5042469;28;20683;-67
2021/09/17 10:50:46;;;;;;;1.30;0.47;;;19.20;99.90;;;;;;5027529;28;20195;-67
2021/09/17 10:53:12;;;;;;;0.60;0.43;;;18.90;99.90;;;;;;5037635;28;20191;-69
2021/09/17 10:55:44;;;;;;;1.02;0.70;;;18.70;99.90;;;;;;5039627;28;20190;-67
2021/09/17 10:58:28;;;;;;;1.27;0.70;;;18.50;99.90;;;;;;5030987;28;20182;-69
2021/09/17 11:00:54;;;;;;;0.55;0.47;;;18.30;99.90;;;;;;5033422;28;20689;-68
2021/09/17 11:03:52;;;;;;;0.75;0.45;;;18.20;99.90;;;;;;5042101;28;20210;-69
2021/09/17 11:08:48;;;;;;;1.63;0.70;;;18.10;99.90;;;;;;5031318;28;20686;-69
2021/09/17 11:11:38;;;;;;;1.52;0.70;;;18.20;99.90;;;;;;5034559;28;20242;-68
2021/09/17 11:14:24;;;;;;;0.60;0.50;;;18.10;99.90;;;;;;5026326;28;20193;-68
2021/09/17 11:16:52;;;;;;;2.08;0.50;;;18.20;99.90;;;;;;5030666;28;20175;-69
2021/09/17 11:19:19;;;;;;;0.60;0.50;;;18.40;99.90;;;;;;5033320;28;20574;-66
2021/09/17 11:21:47;;;;;;;1.33;0.47;;;18.60;99.90;;;;;;5028615;28;20670;-68
2021/09/17 11:24:28;;;;;;;0.60;0.35;;;19.00;99.90;;;;;;5037286;28;20283;-67
2021/09/17 11:26:55;;;;;;;2.17;0.40;;;19.20;99.90;;;;;;5036198;28;20155;-66
2021/09/17 11:29:23;;;;;;;0.70;0.50;;;19.10;99.90;;;;;;5036654;28;20179;-69
2021/09/17 11:31:59;;;;;;;0.52;0.50;;;19.20;99.90;;;;;;5037707;28;20202;-68
2021/09/17 11:34:32;;;;;;;0.43;0.43;;;19.10;99.90;;;;;;5032002;28;20748;-68
2021/09/17 11:37:00;;;;;;;0.70;0.52;;;18.90;99.90;;;;;;5030765;28;20653;-67
2021/09/17 11:39:31;;;;;;;0.77;0.70;;;19.00;99.90;;;;;;5028907;28;20652;-69
2021/09/17 11:41:58;;;;;;;0.55;0.50;;;19.30;99.90;;;;;;5025941;28;20219;-68
2021/09/17 11:44:29;;;;;;;1.67;0.70;;;19.50;99.90;;;;;;5034136;28;20230;-67
2021/09/17 11:46:55;;;;;;;1.65;0.45;;;19.70;99.90;;;;;;5029996;28;20638;-69
2021/09/17 11:49:29;;;;;;;0.88;0.40;;;19.70;99.90;;;;;;5033224;28;20183;-70
2021/09/17 11:52:07;;;;;;;2.17;0.50;;;19.50;99.90;;;;;;5029069;28;20727;-69
2021/09/17 11:54:34;;;;;;;1.40;0.40;;;19.30;99.90;;;;;;5030131;28;20186;-69
2021/09/17 11:57:02;;;;;;;1.42;0.50;;;19.00;99.90;;;;;;5033092;28;20213;-67
2021/09/17 11:59:39;;;;;;;0.93;0.43;;;18.90;99.90;;;;;;5030089;28;20239;-66
2021/09/17 12:02:16;;;;;;;0.47;0.40;;;18.90;99.90;;;;;;5038549;28;20206;-67
2021/09/17 12:04:45;;;;;;;1.65;0.50;;;18.80;99.90;;;;;;5037053;28;20558;-67
2021/09/17 12:07:11;;;;;;;0.43;0.40;;;18.90;99.90;;;;;;5023514;28;20198;-69
2021/09/17 12:09:37;;;;;;;0.73;0.40;;;18.80;99.90;;;;;;5024345;28;20183;-67
2021/09/17 12:12:03;;;;;;;1.15;0.43;;;18.70;99.90;;;;;;5032618;28;20206;-69
2021/09/17 12:14:28;;;;;;;0.50;0.50;;;18.60;99.90;;;;;;5037200;28;20180;-67
2021/09/17 12:17:05;;;;;;;3.22;0.45;;;18.50;99.90;;;;;;5032285;28;20182;-67
2021/09/17 12:19:50;;;;;;;1.08;0.63;;;18.40;99.90;;;;;;5040597;28;20240;-69
2021/09/17 12:22:39;;;;;;;1.35;0.57;;;18.30;99.90;;;;;;5033489;28;20671;-69
2021/09/17 12:25:12;;;;;;;0.50;0.30;;;18.10;99.90;;;;;;5033212;28;20198;-67
2021/09/17 12:27:40;;;;;;;0.80;0.50;;;18.20;99.90;;;;;;5022252;28;20277;-67
2021/09/17 12:30:09;;;;;;;1.75;0.57;;;18.00;99.90;;;;;;5037500;28;20669;-68
2021/09/17 12:32:36;;;;;;;0.50;0.40;;;17.70;99.90;;;;;;5028150;28;20214;-68
2021/09/17 12:35:07;;;;;;;0.50;0.50;;;17.60;99.90;;;;;;5031822;28;20179;-67
2021/09/17 12:37:33;;;;;;;0.30;0.30;;;17.50;99.90;;;;;;5035247;28;20190;-66
2021/09/17 12:40:13;;;;;;;2.05;0.47;;;17.40;99.90;;;;;;5032250;28;20186;-66
2021/09/17 12:42:40;;;;;;;2.15;0.40;;;17.40;99.90;;;;;;5030001;28;20193;-68
2021/09/17 12:45:08;;;;;;;3.03;0.80;;;17.40;99.90;;;;;;5024033;28;20198;-68
2021/09/17 12:47:34;;;;;;;1.02;0.47;;;17.40;99.90;;;;;;5033460;28;20185;-68
2021/09/17 12:50:12;;;;;;;1.23;0.50;;;17.40;99.90;;;;;;5022084;28;20178;-69
2021/09/17 12:52:46;;;;;;;0.60;0.50;;;17.30;99.90;;;;;;5030043;28;20898;-68
2021/09/17 12:55:24;;;;;;;1.13;0.52;;;17.20;99.90;;;;;;5034060;28;20640;-68
2021/09/17 12:58:15;;;;;;;0.80;0.57;;;17.10;99.90;;;;;;5036092;28;20178;-69
2021/09/17 13:00:41;;;;;;;0.95;0.50;;;17.20;99.90;;;;;;5025644;28;20439;-69
2021/09/17 13:03:12;;;;;;;1.00;0.52;;;17.20;99.90;;;;;;5036065;28;20315;-66
2021/09/17 13:05:40;;;;;;;0.60;0.60;;;17.30;99.90;;;;;;5031003;28;20193;-69
2021/09/17 13:08:07;;;;;;;0.47;0.45;;;17.30;99.90;;;;;;5030261;28;20266;-68